Time;durP1;ratioP1;P1;durP2;ratioP2;P2;SDS_P1;SDS_P2;PMS_P1;PMS_P2;Temp;Humidity;BMP_temperature;BMP_pressure;BME280_temperature;BME280_humidity;BME280_pressure;Samples;Min_cycle;Max_cycle;Signal;HPM_P1;HPM_P2
2022/04/28 00:00:49;;;;;;;2.53;2.42;;;6.60;99.90;;;;;;4143038;28;20073;-89
2022/04/28 00:02:53;;;;;;;3.28;3.17;;;6.70;99.90;;;;;;4139602;28;20077;-88
2022/04/28 00:04:56;;;;;;;2.72;2.72;;;6.80;99.90;;;;;;4160533;28;20068;-89
2022/04/28 00:06:58;;;;;;;2.95;2.95;;;6.80;99.90;;;;;;4144781;28;20773;-89
2022/04/28 00:09:00;;;;;;;4.13;3.97;;;6.90;99.90;;;;;;4181084;28;20449;-89
2022/04/28 00:11:03;;;;;;;3.25;3.15;;;6.90;99.90;;;;;;4162139;28;20053;-89
2022/04/28 00:13:07;;;;;;;3.20;3.15;;;6.90;99.90;;;;;;4163506;28;20041;-90
2022/04/28 00:15:09;;;;;;;2.53;2.53;;;6.80;99.90;;;;;;4179850;28;20041;-89
2022/04/28 00:17:12;;;;;;;2.85;2.85;;;6.80;99.90;;;;;;4163400;28;20065;-89
2022/04/28 00:19:15;;;;;;;3.00;3.00;;;6.80;99.90;;;;;;4163503;28;20037;-89
2022/04/28 00:21:20;;;;;;;2.60;2.60;;;6.70;99.90;;;;;;4162225;28;20068;-89
2022/04/28 00:23:23;;;;;;;2.50;2.50;;;6.80;99.90;;;;;;4179777;28;20037;-89
2022/04/28 00:25:25;;;;;;;2.80;2.70;;;6.80;99.90;;;;;;4161484;28;20517;-90
2022/04/28 00:27:27;;;;;;;2.70;2.70;;;6.70;99.90;;;;;;4157665;28;20149;-89
2022/04/28 00:29:31;;;;;;;2.58;2.33;;;6.70;99.90;;;;;;4163425;28;20060;-89
2022/04/28 00:31:34;;;;;;;3.10;3.00;;;6.60;99.90;;;;;;4173889;28;20045;-89
2022/04/28 00:33:36;;;;;;;3.03;2.83;;;6.70;99.90;;;;;;4151238;28;20478;-89
2022/04/28 00:35:39;;;;;;;2.88;2.78;;;6.70;99.90;;;;;;4162348;28;20034;-89
2022/04/28 00:37:42;;;;;;;2.53;2.53;;;6.70;99.90;;;;;;4179966;28;20045;-88
2022/04/28 00:39:44;;;;;;;2.97;2.97;;;6.80;99.90;;;;;;4164348;28;20091;-89
2022/04/28 00:41:46;;;;;;;2.40;2.30;;;6.80;99.90;;;;;;4169830;28;20040;-89
2022/04/28 00:43:51;;;;;;;2.90;2.75;;;6.70;99.90;;;;;;4188903;28;20075;-89
2022/04/28 00:46:22;;;;;;;2.28;2.28;;;6.70;99.90;;;;;;4180853;28;20095;-89
2022/04/28 00:50:46;;;;;;;2.45;2.38;;;6.80;99.90;;;;;;4129657;28;20081;-89
2022/04/28 00:52:48;;;;;;;2.53;2.47;;;6.80;99.90;;;;;;4131083;28;20084;-89
2022/04/28 00:54:55;;;;;;;2.75;2.65;;;6.70;99.90;;;;;;4131020;28;20052;-89
2022/04/28 00:56:58;;;;;;;2.63;2.53;;;6.60;99.90;;;;;;4113642;28;20062;-88
2022/04/28 00:59:02;;;;;;;2.38;2.38;;;6.50;99.90;;;;;;4128439;28;20459;-89
2022/04/28 01:01:05;;;;;;;3.00;2.95;;;6.40;99.90;;;;;;4113695;28;20046;-84
2022/04/28 01:03:09;;;;;;;2.30;2.20;;;6.40;99.90;;;;;;4111934;28;20083;-85
2022/04/28 01:05:12;;;;;;;2.53;2.42;;;6.40;99.90;;;;;;4112727;28;20154;-87
2022/04/28 01:07:15;;;;;;;2.20;1.98;;;6.30;99.90;;;;;;4113418;28;20466;-85
2022/04/28 01:09:18;;;;;;;2.00;2.00;;;6.40;99.90;;;;;;4129124;28;20050;-84
2022/04/28 01:11:48;;;;;;;3.00;2.80;;;6.30;99.90;;;;;;4113227;28;20050;-85
2022/04/28 01:13:50;;;;;;;2.28;2.17;;;6.20;99.90;;;;;;4113615;28;20121;-85
2022/04/28 01:15:54;;;;;;;3.00;2.70;;;6.20;99.90;;;;;;4081141;29;20460;-85
2022/04/28 01:17:56;;;;;;;2.65;2.45;;;6.20;99.90;;;;;;4095494;28;20102;-84
2022/04/28 01:19:58;;;;;;;2.78;2.78;;;6.20;99.90;;;;;;4096835;28;20578;-85
2022/04/28 01:22:01;;;;;;;2.63;2.63;;;6.20;99.90;;;;;;4099765;28;20544;-84
2022/04/28 01:24:04;;;;;;;2.53;2.47;;;6.30;99.90;;;;;;4113423;28;20419;-85
2022/04/28 01:26:06;;;;;;;2.22;2.22;;;6.30;99.90;;;;;;4111489;28;20055;-85
2022/04/28 01:28:08;;;;;;;2.92;2.90;;;6.20;99.90;;;;;;4145154;28;20049;-85
2022/04/28 01:30:13;;;;;;;3.22;2.92;;;6.20;99.90;;;;;;4129073;28;20045;-85
2022/04/28 01:32:16;;;;;;;2.88;2.67;;;6.20;99.90;;;;;;4145042;28;20474;-85
2022/04/28 01:34:18;;;;;;;2.80;2.70;;;6.10;99.90;;;;;;4128932;28;20043;-84
2022/04/28 01:36:20;;;;;;;2.22;2.13;;;6.00;99.90;;;;;;4145060;28;20096;-85
2022/04/28 01:38:24;;;;;;;2.42;2.42;;;6.00;99.90;;;;;;4141310;28;20085;-85
2022/04/28 01:40:26;;;;;;;2.53;2.33;;;5.90;99.90;;;;;;4144899;28;20046;-84
2022/04/28 01:42:28;;;;;;;2.08;2.08;;;5.80;99.90;;;;;;4128272;28;20058;-85
2022/04/28 01:44:31;;;;;;;2.40;2.40;;;5.90;99.90;;;;;;4128937;28;20055;-84
2022/04/28 01:46:33;;;;;;;2.53;2.40;;;5.90;99.90;;;;;;4129020;28;20046;-84
2022/04/28 01:48:36;;;;;;;2.20;2.20;;;5.90;99.90;;;;;;4128108;28;20084;-84
2022/04/28 01:50:38;;;;;;;2.40;2.30;;;5.90;99.90;;;;;;4139678;28;20079;-85
2022/04/28 01:55:01;;;;;;;2.95;2.85;;;5.80;99.90;;;;;;4171264;28;20071;-84
2022/04/28 01:57:03;;;;;;;3.42;3.13;;;5.90;99.90;;;;;;4176908;28;20129;-85
2022/04/28 01:59:05;;;;;;;2.80;2.70;;;5.80;99.90;;;;;;4177129;28;20044;-85
2022/04/28 02:01:07;;;;;;;2.92;2.72;;;5.70;99.90;;;;;;4193340;28;20051;-85
2022/04/28 02:03:10;;;;;;;3.67;3.42;;;5.70;99.90;;;;;;4176937;28;20073;-84
2022/04/28 02:05:13;;;;;;;2.85;2.75;;;5.60;99.90;;;;;;4176732;28;20499;-85
2022/04/28 02:07:16;;;;;;;2.70;2.70;;;5.60;99.90;;;;;;4176072;28;20140;-84
2022/04/28 02:09:19;;;;;;;2.72;2.72;;;5.60;99.90;;;;;;4190624;28;20029;-85
2022/04/28 02:11:21;;;;;;;2.50;2.50;;;5.50;99.90;;;;;;4177939;28;20147;-84
2022/04/28 02:13:24;;;;;;;2.75;2.75;;;5.40;99.90;;;;;;4179696;28;20068;-85
2022/04/28 02:15:25;;;;;;;3.28;3.08;;;5.40;99.90;;;;;;4161655;28;20084;-84
2022/04/28 02:17:28;;;;;;;3.22;3.22;;;5.30;99.90;;;;;;4181503;28;20045;-85
2022/04/28 02:19:30;;;;;;;3.67;3.40;;;5.30;99.90;;;;;;4161243;28;20513;-85
2022/04/28 02:21:32;;;;;;;;;;;5.20;99.90;;;;;;4145586;28;20103;-84
2022/04/28 02:23:34;;;;;;;3.33;3.33;;;5.10;99.90;;;;;;4160994;28;19933;-85
2022/04/28 02:25:38;;;;;;;2.80;2.78;;;5.00;99.90;;;;;;4194730;28;20064;-85
2022/04/28 02:27:42;;;;;;;2.85;2.75;;;5.10;99.90;;;;;;4194139;28;20123;-85
2022/04/28 02:29:45;;;;;;;2.97;2.97;;;5.20;99.90;;;;;;4176139;28;20087;-84
2022/04/28 02:31:47;;;;;;;3.08;2.88;;;5.20;99.90;;;;;;4170254;28;20033;-84
2022/04/28 02:33:49;;;;;;;3.03;2.92;;;5.30;99.90;;;;;;4187446;28;20742;-85
2022/04/28 02:35:52;;;;;;;2.75;2.65;;;5.30;99.90;;;;;;4160028;28;20045;-84
2022/04/28 02:37:54;;;;;;;3.20;3.00;;;5.30;99.90;;;;;;4191271;28;20044;-85
2022/04/28 02:39:56;;;;;;;2.85;2.72;;;5.20;99.90;;;;;;4177993;28;20037;-84
2022/04/28 02:41:58;;;;;;;3.13;3.03;;;5.20;99.90;;;;;;4176340;28;20048;-85
2022/04/28 02:44:02;;;;;;;2.17;2.17;;;5.10;99.90;;;;;;4161314;28;20046;-85
2022/04/28 02:46:04;;;;;;;2.58;2.58;;;5.10;99.90;;;;;;4164112;28;20103;-84
2022/04/28 02:48:08;;;;;;;2.85;2.75;;;5.10;99.90;;;;;;4162371;28;20034;-84
2022/04/28 02:50:11;;;;;;;4.93;3.40;;;5.20;99.90;;;;;;4156049;28;20046;-84
2022/04/28 02:52:14;;;;;;;3.28;3.08;;;5.20;99.90;;;;;;4174900;28;20041;-84
2022/04/28 02:54:16;;;;;;;2.65;2.65;;;5.20;99.90;;;;;;4176256;28;20045;-84
2022/04/28 02:56:19;;;;;;;3.45;3.35;;;5.20;99.90;;;;;;4188433;28;20170;-85
2022/04/28 02:58:22;;;;;;;3.05;2.85;;;5.20;99.90;;;;;;4178418;28;20090;-84
2022/04/28 03:00:25;;;;;;;4.25;4.15;;;5.10;99.90;;;;;;4178362;28;20041;-84
2022/04/28 03:02:27;;;;;;;4.00;3.90;;;5.10;99.90;;;;;;4144731;28;20425;-84
2022/04/28 03:04:29;;;;;;;5.57;5.38;;;5.00;99.90;;;;;;4178369;28;20143;-85
2022/04/28 03:11:14;;;;;;;4.43;4.32;;;4.80;99.90;;;;;;4160447;28;20056;-84
2022/04/28 03:13:21;;;;;;;2.83;2.83;;;4.70;99.90;;;;;;4170549;28;20025;-84
2022/04/28 03:15:25;;;;;;;3.58;3.30;;;4.80;99.90;;;;;;4166120;28;20172;-85
2022/04/28 03:17:27;;;;;;;2.85;2.83;;;4.80;99.90;;;;;;4156411;28;20127;-84
2022/04/28 03:19:29;;;;;;;3.00;3.00;;;4.70;99.90;;;;;;4176983;28;20063;-84
2022/04/28 03:21:32;;;;;;;3.63;3.53;;;4.70;99.90;;;;;;4160634;28;20083;-84
2022/04/28 03:23:35;;;;;;;3.22;3.13;;;4.60;99.90;;;;;;4167384;28;20052;-85
2022/04/28 03:25:38;;;;;;;3.10;2.95;;;4.70;99.90;;;;;;4145138;28;20045;-84
2022/04/28 03:27:42;;;;;;;3.53;3.35;;;4.70;99.90;;;;;;4143965;28;20100;-84
2022/04/28 03:29:45;;;;;;;3.53;3.42;;;4.60;99.90;;;;;;4177043;28;20037;-84
2022/04/28 03:31:47;;;;;;;2.92;2.83;;;4.50;99.90;;;;;;4148270;28;20406;-84
2022/04/28 03:33:51;;;;;;;3.47;3.38;;;4.50;99.90;;;;;;4160546;28;20042;-84
2022/04/28 03:35:54;;;;;;;2.70;2.60;;;4.50;99.90;;;;;;4159079;28;20064;-84
2022/04/28 03:37:58;;;;;;;3.40;3.30;;;4.50;99.90;;;;;;4175388;28;20483;-84
2022/04/28 03:40:00;;;;;;;3.25;3.25;;;4.50;99.90;;;;;;4173924;28;20444;-84
2022/04/28 03:42:03;;;;;;;3.63;3.53;;;4.50;99.90;;;;;;4134703;28;20120;-84
2022/04/28 03:44:06;;;;;;;3.60;3.55;;;4.50;99.90;;;;;;4192152;28;20040;-84
2022/04/28 03:46:08;;;;;;;4.97;4.05;;;4.50;99.90;;;;;;4164003;28;20873;-84
2022/04/28 03:48:10;;;;;;;4.38;4.18;;;4.50;99.90;;;;;;4175732;28;20577;-84
2022/04/28 03:50:14;;;;;;;3.65;3.55;;;4.40;99.90;;;;;;4196117;28;20047;-84
2022/04/28 03:52:17;;;;;;;3.58;3.58;;;4.40;99.90;;;;;;4159077;28;20099;-84
2022/04/28 03:54:26;;;;;;;3.25;3.25;;;4.40;99.90;;;;;;4170646;28;20048;-84
2022/04/28 03:56:32;;;;;;;3.67;3.63;;;4.40;99.90;;;;;;4176666;28;20440;-84
2022/04/28 03:58:34;;;;;;;3.75;3.65;;;4.40;99.90;;;;;;4192955;28;20401;-84
2022/04/28 04:00:36;;;;;;;4.03;3.65;;;4.40;99.90;;;;;;4192142;28;20496;-84
2022/04/28 04:02:38;;;;;;;3.03;2.83;;;4.40;99.90;;;;;;4176658;28;20053;-84
2022/04/28 04:04:41;;;;;;;;;;;4.40;99.90;;;;;;4194897;28;20160;-84
2022/04/28 04:06:43;;;;;;;3.55;3.45;;;4.50;99.90;;;;;;4177779;28;19921;-84
2022/04/28 04:08:45;;;;;;;3.50;3.50;;;4.50;99.90;;;;;;4178016;28;20060;-84
2022/04/28 04:10:49;;;;;;;3.00;3.00;;;4.60;99.90;;;;;;4184903;28;20093;-84
2022/04/28 04:12:52;;;;;;;2.38;2.38;;;4.60;99.90;;;;;;4166271;28;20041;-84
2022/04/28 04:14:54;;;;;;;2.80;2.67;;;4.50;99.90;;;;;;4177331;28;20037;-84
2022/04/28 04:16:56;;;;;;;2.45;2.15;;;4.50;99.90;;;;;;4177469;28;20091;-84
2022/04/28 04:18:58;;;;;;;2.97;2.97;;;4.50;99.90;;;;;;4194939;28;20444;-84
2022/04/28 04:21:00;;;;;;;3.85;3.75;;;4.60;99.90;;;;;;4175824;28;20499;-84
2022/04/28 04:23:05;;;;;;;1.75;1.75;;;4.60;99.90;;;;;;4195721;28;20037;-84
2022/04/28 04:25:08;;;;;;;3.03;2.05;;;4.70;99.90;;;;;;4179613;28;20162;-84
2022/04/28 04:27:11;;;;;;;2.78;2.78;;;4.70;99.90;;;;;;4178548;28;20506;-85
2022/04/28 04:29:13;;;;;;;2.85;2.85;;;4.70;99.90;;;;;;4191156;28;20044;-84
2022/04/28 04:33:37;;;;;;;2.10;2.00;;;4.60;99.90;;;;;;4193974;28;20058;-84
2022/04/28 04:35:39;;;;;;;2.47;2.47;;;4.60;99.90;;;;;;4175938;28;20045;-84
2022/04/28 04:37:42;;;;;;;2.45;2.45;;;4.60;99.90;;;;;;4170390;28;20064;-84
2022/04/28 04:39:45;;;;;;;2.40;2.40;;;4.70;99.90;;;;;;4159909;28;20208;-84
2022/04/28 04:41:47;;;;;;;2.30;2.20;;;4.70;99.90;;;;;;4161094;28;20497;-84
2022/04/28 04:43:50;;;;;;;2.78;2.78;;;4.60;99.90;;;;;;4167612;28;20042;-84
2022/04/28 04:45:52;;;;;;;2.17;2.17;;;4.60;99.90;;;;;;4161008;28;20091;-84
2022/04/28 04:47:55;;;;;;;2.80;2.60;;;4.50;99.90;;;;;;4159813;28;20072;-84
2022/04/28 04:49:58;;;;;;;2.88;2.78;;;4.60;99.90;;;;;;4193869;28;20484;-84
2022/04/28 04:52:02;;;;;;;2.30;2.30;;;4.70;99.90;;;;;;4188344;28;20849;-84
2022/04/28 04:54:05;;;;;;;2.60;2.60;;;4.70;99.90;;;;;;4171006;28;20072;-84
2022/04/28 04:56:07;;;;;;;1.92;1.83;;;4.70;99.90;;;;;;4197126;28;20041;-84
2022/04/28 04:58:10;;;;;;;2.35;2.17;;;4.70;99.90;;;;;;4181827;28;20036;-84
2022/04/28 05:00:13;;;;;;;2.40;2.35;;;4.80;99.90;;;;;;4148245;28;20132;-84
2022/04/28 05:02:15;;;;;;;2.30;2.30;;;4.90;99.90;;;;;;4195800;28;20836;-84
2022/04/28 05:04:18;;;;;;;3.03;3.03;;;5.00;99.90;;;;;;4180586;28;20400;-84
2022/04/28 05:06:22;;;;;;;2.83;2.35;;;5.00;99.90;;;;;;4177096;28;20582;-84
2022/04/28 05:08:29;;;;;;;2.33;2.33;;;4.90;99.90;;;;;;4192715;28;20869;-84
2022/04/28 05:10:32;;;;;;;2.45;2.45;;;4.90;99.90;;;;;;4178988;28;20524;-84
2022/04/28 05:12:34;;;;;;;2.35;2.35;;;5.00;99.90;;;;;;4189006;28;20299;-84
2022/04/28 05:14:36;;;;;;;2.30;2.30;;;5.00;99.90;;;;;;4185885;28;20033;-84
2022/04/28 05:16:40;;;;;;;2.53;2.53;;;5.00;99.90;;;;;;4179569;28;20087;-84
2022/04/28 05:18:42;;;;;;;3.70;2.90;;;4.90;99.90;;;;;;4180417;28;20040;-84
2022/04/28 05:20:44;;;;;;;3.03;3.00;;;5.00;99.90;;;;;;4162254;28;20038;-85
2022/04/28 05:22:48;;;;;;;2.35;2.15;;;5.10;99.90;;;;;;4162865;28;20046;-85
2022/04/28 05:24:50;;;;;;;3.13;3.03;;;5.10;99.90;;;;;;4180587;28;20508;-85
2022/04/28 05:26:52;;;;;;;2.75;2.67;;;5.10;99.90;;;;;;4149285;28;20049;-85
2022/04/28 05:28:55;;;;;;;2.80;2.75;;;5.20;99.90;;;;;;4187243;28;20052;-85
2022/04/28 05:30:59;;;;;;;2.55;2.55;;;5.20;99.90;;;;;;4180763;28;20127;-84
2022/04/28 05:33:01;;;;;;;2.10;2.10;;;5.30;99.90;;;;;;4168753;28;20461;-85
2022/04/28 05:35:03;;;;;;;2.47;2.47;;;5.40;99.90;;;;;;4188721;28;20040;-85
2022/04/28 05:37:06;;;;;;;2.58;2.47;;;5.40;99.90;;;;;;4157321;28;20601;-85
2022/04/28 05:39:08;;;;;;;;;;;5.70;99.90;;;;;;4188895;28;20056;-85
2022/04/28 05:41:10;;;;;;;2.55;2.47;;;5.70;99.90;;;;;;4177736;28;20015;-85
2022/04/28 05:45:46;;;;;;;2.45;2.45;;;5.70;99.90;;;;;;4179665;28;20033;-85
2022/04/28 05:47:48;;;;;;;2.33;2.22;;;5.70;99.90;;;;;;4176996;28;20072;-85
2022/04/28 05:49:53;;;;;;;2.13;2.13;;;5.70;99.90;;;;;;4164641;28;20128;-85
2022/04/28 05:51:55;;;;;;;2.83;2.83;;;5.80;99.90;;;;;;4179781;28;20087;-85
2022/04/28 05:53:57;;;;;;;2.60;2.13;;;5.80;99.90;;;;;;4185471;28;20045;-85
2022/04/28 05:56:00;;;;;;;2.53;2.38;;;6.20;99.90;;;;;;4171974;28;20053;-86
2022/04/28 05:58:02;;;;;;;2.17;2.17;;;6.50;99.90;;;;;;4173667;28;20464;-85
2022/04/28 06:00:06;;;;;;;4.57;2.38;;;6.60;99.90;;;;;;4162005;28;20509;-85
2022/04/28 06:02:08;;;;;;;2.00;2.00;;;6.70;99.90;;;;;;4162020;28;20095;-85
2022/04/28 06:04:10;;;;;;;;;;;6.70;99.90;;;;;;4179109;28;20140;-85
2022/04/28 06:06:14;;;;;;;;;;;6.70;99.90;;;;;;4176498;28;20015;-86
2022/04/28 06:08:16;;;;;;;2.10;2.10;;;6.80;99.90;;;;;;4179362;28;20031;-85
2022/04/28 06:10:19;;;;;;;4.60;2.03;;;7.00;99.90;;;;;;4176805;28;20473;-86
2022/04/28 06:12:24;;;;;;;2.00;1.90;;;7.30;99.90;;;;;;4180599;28;20059;-85
2022/04/28 06:14:26;;;;;;;1.98;1.88;;;7.60;99.90;;;;;;4176902;28;20045;-86
2022/04/28 06:16:29;;;;;;;2.28;2.17;;;7.70;99.90;;;;;;4174498;28;20041;-85
2022/04/28 06:18:31;;;;;;;2.47;2.17;;;7.80;99.90;;;;;;4158940;28;20030;-85
2022/04/28 06:20:33;;;;;;;3.85;3.65;;;7.70;99.90;;;;;;4178537;28;20374;-85
2022/04/28 06:22:37;;;;;;;4.45;3.13;;;7.70;99.90;;;;;;4144713;28;20145;-85
2022/04/28 06:24:40;;;;;;;2.63;1.40;;;7.90;99.90;;;;;;4161551;28;20037;-85
2022/04/28 06:26:42;;;;;;;2.97;1.73;;;8.00;99.90;;;;;;4179310;28;20501;-85
2022/04/28 06:28:44;;;;;;;3.45;1.30;;;8.10;99.90;;;;;;4177342;28;20080;-85
2022/04/28 06:30:46;;;;;;;2.95;1.30;;;8.20;99.90;;;;;;4176321;28;20112;-85
2022/04/28 06:32:49;;;;;;;2.47;1.50;;;8.30;99.90;;;;;;4177774;28;20061;-86
2022/04/28 06:34:52;;;;;;;1.83;1.40;;;8.60;99.90;;;;;;4156249;28;20045;-86
2022/04/28 06:36:54;;;;;;;1.40;1.40;;;9.20;99.90;;;;;;4162537;28;20056;-85
2022/04/28 06:38:57;;;;;;;1.30;1.30;;;9.30;99.90;;;;;;4145466;28;20145;-85
2022/04/28 06:41:00;;;;;;;1.65;1.27;;;9.30;99.90;;;;;;4153365;28;20038;-86
2022/04/28 06:43:02;;;;;;;1.95;1.30;;;9.30;99.90;;;;;;4177403;28;20102;-86
2022/04/28 06:45:04;;;;;;;2.35;1.05;;;9.50;99.90;;;;;;4193974;28;20049;-86
2022/04/28 06:47:06;;;;;;;;;;;9.80;99.90;;;;;;4176495;28;20095;-86
2022/04/28 06:49:09;;;;;;;1.10;1.10;;;9.90;99.90;;;;;;4161140;28;19929;-86
2022/04/28 06:51:13;;;;;;;1.40;1.30;;;10.20;99.90;;;;;;4195322;28;20052;-86
2022/04/28 06:53:15;;;;;;;2.15;1.48;;;10.40;99.90;;;;;;4189368;28;20124;-86
2022/04/28 06:55:17;;;;;;;1.95;1.38;;;10.50;99.90;;;;;;4161002;28;20111;-86
2022/04/28 06:57:21;;;;;;;1.65;1.55;;;10.50;99.90;;;;;;4150058;28;20137;-86
2022/04/28 06:59:24;;;;;;;1.60;1.50;;;10.70;99.90;;;;;;4177321;28;20547;-86
2022/04/28 07:01:27;;;;;;;2.28;1.00;;;10.80;99.90;;;;;;4176144;28;20036;-86
2022/04/28 07:03:40;;;;;;;1.42;1.42;;;10.90;99.90;;;;;;4177320;28;20128;-86
2022/04/28 07:05:43;;;;;;;2.03;1.13;;;11.20;99.90;;;;;;4162032;28;20056;-86
2022/04/28 07:07:47;;;;;;;4.40;1.38;;;11.30;99.90;;;;;;4178409;28;20033;-86
2022/04/28 07:09:51;;;;;;;1.80;1.80;;;11.30;99.90;;;;;;4169345;28;20057;-86
2022/04/28 07:12:11;;;;;;;2.08;1.67;;;11.40;99.90;;;;;;4165961;28;20124;-86
2022/04/28 07:14:13;;;;;;;2.50;1.30;;;11.60;99.90;;;;;;4176001;28;20041;-86
2022/04/28 07:16:16;;;;;;;1.95;1.40;;;11.80;99.90;;;;;;4170727;28;20521;-86
2022/04/28 07:18:18;;;;;;;1.75;1.67;;;12.00;99.90;;;;;;4162008;28;20489;-86
2022/04/28 07:20:21;;;;;;;1.30;1.30;;;12.10;99.90;;;;;;4194990;28;20829;-86
2022/04/28 07:22:23;;;;;;;1.35;1.35;;;12.30;99.90;;;;;;4176872;28;20451;-86
2022/04/28 07:24:26;;;;;;;1.55;1.45;;;12.30;99.90;;;;;;4160807;28;20772;-86
2022/04/28 07:26:28;;;;;;;2.92;1.48;;;12.60;99.90;;;;;;4191587;28;20913;-86
2022/04/28 07:28:31;;;;;;;1.70;1.33;;;12.80;99.90;;;;;;4194587;28;20028;-86
2022/04/28 07:30:34;;;;;;;3.55;1.40;;;13.10;99.90;;;;;;4193717;28;20044;-86
2022/04/28 07:32:37;;;;;;;7.68;1.75;;;13.20;99.90;;;;;;4167269;28;20815;-86
2022/04/28 07:34:39;;;;;;;4.43;1.52;;;13.30;99.90;;;;;;4177124;28;20041;-86
2022/04/28 07:36:42;;;;;;;1.40;1.30;;;13.60;99.90;;;;;;4146597;28;20046;-86
2022/04/28 07:38:45;;;;;;;1.55;1.45;;;13.80;99.90;;;;;;4192895;28;20500;-86
2022/04/28 07:40:50;;;;;;;1.58;1.48;;;14.00;99.90;;;;;;4192882;28;20120;-87
2022/04/28 07:42:52;;;;;;;1.23;1.23;;;14.10;99.90;;;;;;4175814;28;20091;-86
2022/04/28 07:44:55;;;;;;;;;;;14.50;99.90;;;;;;4181133;28;20390;-86
2022/04/28 07:46:58;;;;;;;1.00;1.00;;;14.70;99.90;;;;;;4178412;28;19925;-86
2022/04/28 07:49:26;;;;;;;1.25;1.15;;;15.30;99.30;;;;;;4145308;28;20076;-86
2022/04/28 07:51:30;;;;;;;1.10;1.10;;;15.70;98.00;;;;;;4106594;28;20078;-87
2022/04/28 07:53:32;;;;;;;1.00;1.00;;;15.40;96.50;;;;;;4128205;28;20062;-86
2022/04/28 07:55:35;;;;;;;1.10;1.10;;;15.50;98.50;;;;;;4133369;28;20050;-86
2022/04/28 07:57:38;;;;;;;1.20;1.20;;;15.70;98.00;;;;;;4138442;28;20045;-86
2022/04/28 07:59:41;;;;;;;3.25;1.20;;;15.70;96.40;;;;;;4112170;28;20415;-86
2022/04/28 08:01:44;;;;;;;1.50;1.10;;;15.70;95.10;;;;;;4110918;28;20643;-86
2022/04/28 08:03:49;;;;;;;1.00;1.00;;;15.80;94.90;;;;;;4127573;28;20038;-86
2022/04/28 08:05:53;;;;;;;1.05;1.05;;;16.00;94.80;;;;;;4112065;28;20592;-86
2022/04/28 08:07:55;;;;;;;1.10;1.10;;;15.90;94.60;;;;;;4111809;28;20495;-87
2022/04/28 08:09:57;;;;;;;2.35;1.00;;;16.00;93.50;;;;;;4126656;28;20547;-86
2022/04/28 08:12:00;;;;;;;1.08;1.08;;;16.10;94.60;;;;;;4127696;28;20202;-87
2022/04/28 08:14:02;;;;;;;0.90;0.90;;;16.20;94.60;;;;;;4126220;28;20077;-86
2022/04/28 08:16:05;;;;;;;1.00;1.00;;;16.20;93.30;;;;;;4128230;28;20051;-86
2022/04/28 08:18:09;;;;;;;1.10;1.10;;;16.20;93.60;;;;;;4121403;28;20221;-86
2022/04/28 08:20:13;;;;;;;1.10;1.10;;;16.40;95.40;;;;;;4127169;28;20062;-87
2022/04/28 08:22:15;;;;;;;1.00;1.00;;;16.50;93.40;;;;;;4110675;28;20120;-86
2022/04/28 08:24:17;;;;;;;1.00;1.00;;;16.40;93.00;;;;;;4111861;28;20050;-86
2022/04/28 08:26:19;;;;;;;;;;;16.60;94.80;;;;;;4128321;28;20065;-86
2022/04/28 08:28:22;;;;;;;1.00;1.00;;;16.80;93.90;;;;;;4149008;28;20510;-86
2022/04/28 08:30:24;;;;;;;1.05;1.00;;;17.00;94.10;;;;;;4197381;28;20577;-87
2022/04/28 08:32:26;;;;;;;1.00;1.00;;;16.90;92.00;;;;;;4179831;28;20512;-86
2022/04/28 08:34:29;;;;;;;1.00;1.00;;;16.90;93.60;;;;;;4163072;28;20413;-87
2022/04/28 08:36:33;;;;;;;1.10;1.00;;;17.10;91.30;;;;;;4198685;28;20063;-86
2022/04/28 08:38:36;;;;;;;0.90;0.90;;;17.00;91.20;;;;;;4182926;28;20037;-87
2022/04/28 08:40:38;;;;;;;0.90;0.90;;;17.10;92.40;;;;;;4164591;28;20037;-86
2022/04/28 08:42:42;;;;;;;0.90;0.90;;;17.40;93.10;;;;;;4181898;28;20047;-87
2022/04/28 08:44:45;;;;;;;1.00;1.00;;;17.40;91.70;;;;;;4180977;28;20071;-86
2022/04/28 08:46:50;;;;;;;0.90;0.90;;;17.40;91.20;;;;;;4175236;28;20098;-86
2022/04/28 08:48:55;;;;;;;0.98;0.98;;;17.30;91.50;;;;;;4180517;28;20049;-86
2022/04/28 08:50:59;;;;;;;0.90;0.90;;;17.20;90.30;;;;;;4163922;28;20057;-87
2022/04/28 08:53:05;;;;;;;0.90;0.90;;;17.40;91.10;;;;;;4178774;28;20041;-86
2022/04/28 08:55:08;;;;;;;1.02;0.98;;;17.80;92.80;;;;;;4193433;28;20036;-86
2022/04/28 08:57:13;;;;;;;1.00;0.90;;;18.00;91.80;;;;;;4177665;28;20091;-86
2022/04/28 08:59:16;;;;;;;0.90;0.90;;;18.20;90.40;;;;;;4163860;28;20095;-86
2022/04/28 09:01:23;;;;;;;1.08;1.05;;;18.20;90.60;;;;;;4179643;28;20037;-86
2022/04/28 09:03:26;;;;;;;1.00;1.00;;;18.20;91.60;;;;;;4163584;28;20701;-87
2022/04/28 09:05:31;;;;;;;0.90;0.90;;;17.70;89.70;;;;;;4176697;28;20059;-86
2022/04/28 09:07:34;;;;;;;1.02;1.02;;;17.70;89.90;;;;;;4195564;28;20818;-86
2022/04/28 09:09:38;;;;;;;0.90;0.90;;;17.90;92.30;;;;;;4178817;28;20065;-86
2022/04/28 09:11:43;;;;;;;1.00;1.00;;;18.60;93.70;;;;;;4162509;28;20048;-86
2022/04/28 09:16:11;;;;;;;0.93;0.93;;;19.20;90.90;;;;;;4191286;28;20041;-86
2022/04/28 09:18:15;;;;;;;0.90;0.90;;;18.90;92.90;;;;;;4168664;28;20560;-86
2022/04/28 09:20:21;;;;;;;0.90;0.90;;;18.80;88.80;;;;;;4180344;28;20050;-86
2022/04/28 09:22:24;;;;;;;1.00;1.00;;;18.60;89.80;;;;;;4162781;28;20128;-86
2022/04/28 09:24:27;;;;;;;1.45;0.90;;;18.50;91.10;;;;;;4212764;28;20089;-86
2022/04/28 09:26:32;;;;;;;1.08;1.08;;;18.70;91.30;;;;;;4179504;28;20136;-86
2022/04/28 09:28:35;;;;;;;0.90;0.90;;;18.70;89.00;;;;;;4179451;28;20037;-87
2022/04/28 09:30:49;;;;;;;1.00;1.00;;;18.60;89.90;;;;;;4178652;28;20075;-86
2022/04/28 09:32:54;;;;;;;0.90;0.90;;;18.40;86.30;;;;;;4163866;28;20057;-86
2022/04/28 09:35:11;;;;;;;0.90;0.90;;;18.30;89.00;;;;;;4165608;28;20042;-86
2022/04/28 09:37:19;;;;;;;0.80;0.80;;;19.00;92.30;;;;;;4179960;28;20428;-86
2022/04/28 09:44:06;;;;;;;0.82;0.82;;;19.70;90.90;;;;;;4197133;28;20120;-86
2022/04/28 09:46:08;;;;;;;;;;;19.10;85.80;;;;;;4179089;28;20049;-86
2022/04/28 09:48:11;;;;;;;1.00;1.00;;;18.90;88.20;;;;;;4172305;28;20351;-86
2022/04/28 09:50:14;;;;;;;1.02;0.90;;;19.00;88.70;;;;;;4166481;28;20087;-86
2022/04/28 09:52:17;;;;;;;2.42;2.33;;;19.40;91.30;;;;;;4177878;28;20045;-86
2022/04/28 09:54:20;;;;;;;1.00;1.00;;;19.40;87.90;;;;;;4188461;28;20594;-86
2022/04/28 09:56:28;;;;;;;1.25;1.25;;;19.20;89.70;;;;;;4178225;28;20242;-87
2022/04/28 09:58:38;;;;;;;1.00;1.00;;;18.70;88.70;;;;;;4179653;28;20472;-86
2022/04/28 10:00:40;;;;;;;1.00;1.00;;;18.70;88.10;;;;;;4180593;28;20576;-86
2022/04/28 10:02:43;;;;;;;;;;;18.70;88.20;;;;;;4178029;28;20037;-87
2022/04/28 10:04:47;;;;;;;0.90;0.90;;;18.80;88.10;;;;;;4171034;28;19943;-87
2022/04/28 10:06:49;;;;;;;0.90;0.90;;;18.70;86.90;;;;;;4169471;28;20505;-86
2022/04/28 10:08:52;;;;;;;1.00;1.00;;;18.40;86.10;;;;;;4194695;28;20033;-87
2022/04/28 10:10:57;;;;;;;1.00;1.00;;;18.30;89.00;;;;;;4196497;28;20044;-86
2022/04/28 10:13:00;;;;;;;1.00;1.00;;;18.20;87.10;;;;;;4166998;28;20549;-86
2022/04/28 10:15:07;;;;;;;0.90;0.90;;;18.40;87.70;;;;;;4168013;28;20088;-87
2022/04/28 10:17:39;;;;;;;0.90;0.90;;;18.00;86.70;;;;;;4186855;28;20068;-86
2022/04/28 10:19:47;;;;;;;0.90;0.90;;;18.10;88.80;;;;;;4173586;28;20139;-86
2022/04/28 10:21:59;;;;;;;1.10;0.90;;;18.60;87.80;;;;;;4171340;28;20086;-86
2022/04/28 10:34:15;;;;;;;1.25;0.90;;;18.30;85.10;;;;;;4194147;28;20032;-86
2022/04/28 10:36:21;;;;;;;1.20;1.20;;;18.40;85.20;;;;;;4194790;28;20071;-86
2022/04/28 10:38:30;;;;;;;1.52;0.95;;;18.30;87.20;;;;;;4176988;28;20102;-86
2022/04/28 10:40:38;;;;;;;1.13;1.10;;;18.40;87.20;;;;;;4193616;28;20130;-86
2022/04/28 10:42:40;;;;;;;0.98;0.98;;;18.70;90.40;;;;;;4164606;28;20074;-86
2022/04/28 10:44:54;;;;;;;0.88;0.88;;;18.70;86.70;;;;;;4178252;28;20048;-87
2022/04/28 10:46:59;;;;;;;1.30;0.90;;;19.00;87.50;;;;;;4177245;28;20075;-87
2022/04/28 10:49:05;;;;;;;1.05;1.00;;;18.90;89.00;;;;;;4175198;28;20163;-87
2022/04/28 10:51:10;;;;;;;0.90;0.90;;;18.60;84.30;;;;;;4175587;28;20490;-88
2022/04/28 10:53:14;;;;;;;0.90;0.90;;;18.80;86.90;;;;;;4177278;28;20051;-86
2022/04/28 10:55:16;;;;;;;0.90;0.90;;;18.60;85.00;;;;;;4193733;28;20508;-86
2022/04/28 10:57:32;;;;;;;1.00;1.00;;;18.30;88.80;;;;;;4177036;28;20037;-87
2022/04/28 10:59:35;;;;;;;0.90;0.90;;;18.20;85.50;;;;;;4177210;28;20088;-86
2022/04/28 11:01:42;;;;;;;1.00;1.00;;;18.20;86.70;;;;;;4160919;28;20489;-87
2022/04/28 11:03:47;;;;;;;0.90;0.90;;;18.30;85.70;;;;;;4186758;28;20067;-86
2022/04/28 11:05:53;;;;;;;1.10;1.10;;;17.90;85.80;;;;;;4165618;28;20033;-86
2022/04/28 11:07:59;;;;;;;1.00;1.00;;;17.90;86.70;;;;;;4185588;28;20041;-86
2022/04/28 11:10:04;;;;;;;1.00;1.00;;;18.20;88.00;;;;;;4183705;28;20620;-86
2022/04/28 11:12:11;;;;;;;1.52;1.42;;;18.80;88.70;;;;;;4174557;28;20041;-87
2022/04/28 11:14:14;;;;;;;1.10;1.10;;;18.80;85.10;;;;;;4186797;28;20037;-87
2022/04/28 11:16:18;;;;;;;0.90;0.90;;;18.50;83.40;;;;;;4169681;28;20041;-86
2022/04/28 11:18:21;;;;;;;1.88;0.90;;;18.30;85.40;;;;;;4144623;28;20034;-86
2022/04/28 11:20:23;;;;;;;1.00;1.00;;;18.60;86.50;;;;;;4156889;28;20557;-86
2022/04/28 11:22:28;;;;;;;1.10;1.10;;;18.60;84.40;;;;;;4159495;28;20040;-86